Ronnie Rogers — WDD2270 — position and weather

sailwx.info

Track history (hours):
 
Tides and Currents Weather Stations Pressure Air Temp Water Temp Dewpoint Dewpoint Depression Visibility Wind Speed Wind Dir Waves Ship Positions

Ronnie Rogers

Owner: Florida Marine, LLC, Mandeville, LA. More information available from US FCC via Universal Licensing System and Coast Guard Vessel Documentation Center.

Last reported at 2017-Aug-19 01:28 UTC. Time now 2017-Aug-19 07:30 UTC.
Position N 29°31' W 094°53'.

Length 27 m; draft 2.4 m.

Type: Towing. MMSI: 367113160.

Date/timePositionNaut miles runAvg speedWind from/ knotsBaromVisibWave heightAir tempDewpointWater temp
2017-Aug-19 01:28N 29°31' W 094°53'4 8.7
2017-Aug-19 01:00N 29°34' W 094°56'4 8.5
2017-Aug-19 00:30N 29°38' W 094°58'5 8.6
2017-Aug-18 23:59N 29°42' W 095°00'1 0.2
2017-Aug-18 17:02N 29°43' W 095°01'0 8.0
2017-Aug-18 16:59N 29°43' W 095°01'4 7.0
2017-Aug-18 16:27N 29°40' W 094°58'4 8.3
2017-Aug-18 16:00N 29°36' W 094°57'4 8.2
2017-Aug-18 15:30N 29°33' W 094°54'3 0.1
2017-Aug-17 07:17N 29°31' W 094°53'2 6.6
2017-Aug-17 07:00N 29°32' W 094°54'4 7.3
2017-Aug-17 06:30N 29°35' W 094°56'4 7.2
2017-Aug-17 06:00N 29°39' W 094°58'4 7.2
2017-Aug-17 05:26N 29°42' W 095°01'3 6.8
2017-Aug-17 05:00N 29°44' W 095°03'2 0.2
2017-Aug-16 17:54N 29°46' W 095°05'4 7.4
2017-Aug-16 17:20N 29°43' W 095°01'3 7.9
2017-Aug-16 17:00N 29°41' W 094°59'5 8.9
2017-Aug-16 16:29N 29°37' W 094°57'4 8.8
2017-Aug-16 16:00N 29°33' W 094°55'  
2017-Aug-12 18:59N 29°32' W 094°54'510.1
2017-Aug-12 18:30N 29°36' W 094°57'510.1
2017-Aug-12 18:00N 29°41' W 094°59'5 8.9
2017-Aug-12 17:26N 29°44' W 095°03'1 0.3
2017-Aug-12 13:36N 29°45' W 095°04'3 6.9
2017-Aug-12 13:10N 29°43' W 095°01'2 7.6
2017-Aug-12 12:57N 29°42' W 094°60'4 8.8
2017-Aug-12 12:28N 29°38' W 094°58'4 9.0
2017-Aug-12 12:00N 29°34' W 094°55'  
Track history (hours):
 
Tides and Currents Weather Stations Pressure Air Temp Water Temp Dewpoint Dewpoint Depression Visibility Wind Speed Wind Dir Waves Ship Positions

Ronnie Rogers

Owner: Florida Marine, LLC, Mandeville, LA. More information available from US FCC via Universal Licensing System and Coast Guard Vessel Documentation Center.

Last reported at 2017-Aug-19 01:28 UTC. Time now 2017-Aug-19 07:30 UTC.
Position N 29°31' W 094°53'.

Length 27 m; draft 2.4 m.

Type: Towing. MMSI: 367113160.

Date/timePositionNaut miles runAvg speedWind from/ knotsBaromVisibWave heightAir tempDewpointWater temp
2017-Aug-19 01:28N 29°31' W 094°53'4 8.7
2017-Aug-19 01:00N 29°34' W 094°56'4 8.5
2017-Aug-19 00:30N 29°38' W 094°58'5 8.6
2017-Aug-18 23:59N 29°42' W 095°00'1 0.2
2017-Aug-18 17:02N 29°43' W 095°01'0 8.0
2017-Aug-18 16:59N 29°43' W 095°01'4 7.0
2017-Aug-18 16:27N 29°40' W 094°58'4 8.3
2017-Aug-18 16:00N 29°36' W 094°57'4 8.2
2017-Aug-18 15:30N 29°33' W 094°54'3 0.1
2017-Aug-17 07:17N 29°31' W 094°53'2 6.6
2017-Aug-17 07:00N 29°32' W 094°54'4 7.3
2017-Aug-17 06:30N 29°35' W 094°56'4 7.2
2017-Aug-17 06:00N 29°39' W 094°58'4 7.2
2017-Aug-17 05:26N 29°42' W 095°01'3 6.8
2017-Aug-17 05:00N 29°44' W 095°03'2 0.2
2017-Aug-16 17:54N 29°46' W 095°05'4 7.4
2017-Aug-16 17:20N 29°43' W 095°01'3 7.9
2017-Aug-16 17:00N 29°41' W 094°59'5 8.9
2017-Aug-16 16:29N 29°37' W 094°57'4 8.8
2017-Aug-16 16:00N 29°33' W 094°55'  
2017-Aug-12 18:59N 29°32' W 094°54'510.1
2017-Aug-12 18:30N 29°36' W 094°57'510.1
2017-Aug-12 18:00N 29°41' W 094°59'5 8.9
2017-Aug-12 17:26N 29°44' W 095°03'1 0.3
2017-Aug-12 13:36N 29°45' W 095°04'3 6.9
2017-Aug-12 13:10N 29°43' W 095°01'2 7.6
2017-Aug-12 12:57N 29°42' W 094°60'4 8.8
2017-Aug-12 12:28N 29°38' W 094°58'4 9.0
2017-Aug-12 12:00N 29°34' W 094°55'  

Dump ship's entire track history